createdAt,value
2023-03-25T00:01:33.212Z,22.40
2023-03-25T00:04:04.527Z,24.10
2023-03-25T00:06:34.624Z,20.10
2023-03-25T00:09:05.309Z,27.20
2023-03-25T00:11:34.026Z,23.10
2023-03-25T00:14:02.256Z,23.70
2023-03-25T00:16:33.148Z,21.90
2023-03-25T00:19:04.692Z,22.90
2023-03-25T00:21:33.619Z,21.10
2023-03-25T00:24:02.440Z,22.30
2023-03-25T00:26:34.392Z,24.40
2023-03-25T00:29:02.482Z,20.80
2023-03-25T00:31:31.240Z,19.00
2023-03-25T00:33:59.984Z,21.00
2023-03-25T00:36:28.417Z,20.40
2023-03-25T00:38:56.358Z,23.10
2023-03-25T00:41:25.952Z,19.20
2023-03-25T00:43:56.631Z,19.60
2023-03-25T00:46:27.680Z,20.30
2023-03-25T00:48:56.722Z,22.50
2023-03-25T00:51:31.338Z,24.70
2023-03-25T00:54:02.794Z,21.40
2023-03-25T00:56:31.663Z,23.60
2023-03-25T00:59:01.542Z,21.10
2023-03-25T01:01:29.968Z,20.50
2023-03-25T01:04:00.242Z,20.00
2023-03-25T01:06:32.462Z,21.00
2023-03-25T01:09:06.046Z,23.70
2023-03-25T01:11:37.813Z,20.60
2023-03-25T01:14:07.589Z,22.80
2023-03-25T01:16:41.518Z,18.30
2023-03-25T01:19:10.691Z,22.70
2023-03-25T01:21:39.724Z,19.50
2023-03-25T01:24:11.754Z,16.90
2023-03-25T01:26:41.669Z,17.70
2023-03-25T01:29:14.661Z,20.30
2023-03-25T01:31:43.213Z,22.50
2023-03-25T01:34:11.710Z,23.30
2023-03-25T01:36:40.241Z,23.60
2023-03-25T01:39:08.801Z,23.60
2023-03-25T01:41:49.189Z,25.90
2023-03-25T01:44:18.264Z,22.50
2023-03-25T01:46:49.798Z,22.50
2023-03-25T01:49:24.005Z,26.00
2023-03-25T01:52:29.940Z,19.40
2023-03-25T01:54:59.458Z,23.00
2023-03-25T01:57:27.789Z,22.30
2023-03-25T01:59:57.795Z,23.10
2023-03-25T02:02:35.243Z,21.80
2023-03-25T02:05:10.974Z,23.50
2023-03-25T02:07:42.709Z,22.30
2023-03-25T02:10:12.507Z,22.20
2023-03-25T02:12:41.605Z,21.10
2023-03-25T02:15:14.427Z,22.00
2023-03-25T02:18:01.252Z,21.20
2023-03-25T02:20:50.653Z,23.00
2023-03-25T02:23:33.898Z,25.90
2023-03-25T02:26:20.302Z,23.30
2023-03-25T02:29:02.191Z,25.00
2023-03-25T02:31:38.391Z,24.90
2023-03-25T02:34:12.923Z,27.50
2023-03-25T02:37:09.349Z,23.40
2023-03-25T02:39:49.301Z,21.60
2023-03-25T02:42:33.735Z,25.10
2023-03-25T02:45:23.922Z,23.60
2023-03-25T02:47:57.903Z,24.10
2023-03-25T02:50:33.609Z,23.80
2023-03-25T02:53:06.389Z,30.00
2023-03-25T02:55:34.935Z,23.20
2023-03-25T02:58:05.016Z,21.50
2023-03-25T03:00:38.562Z,25.60
2023-03-25T03:03:08.092Z,22.90
2023-03-25T03:05:40.904Z,22.00
2023-03-25T03:08:57.722Z,22.50
2023-03-25T03:12:07.832Z,22.50
2023-03-25T03:15:23.495Z,25.80
2023-03-25T03:17:58.311Z,25.00
2023-03-25T03:20:32.877Z,25.60
2023-03-25T03:23:14.767Z,24.50
2023-03-25T03:26:22.187Z,24.90
2023-03-25T03:28:55.855Z,23.60
2023-03-25T03:32:06.540Z,23.60
2023-03-25T03:34:50.072Z,26.30
2023-03-25T03:37:23.958Z,27.10
2023-03-25T03:39:52.063Z,22.70
2023-03-25T03:42:40.036Z,24.10
2023-03-25T03:45:19.445Z,22.30
2023-03-25T03:47:49.668Z,27.60
2023-03-25T03:50:23.745Z,23.90
2023-03-25T03:53:04.912Z,26.20
2023-03-25T03:55:40.241Z,27.70
2023-03-25T03:58:23.009Z,29.60
2023-03-25T04:00:57.774Z,24.40
2023-03-25T04:03:35.153Z,26.40
2023-03-25T04:06:09.826Z,28.40
2023-03-25T04:08:44.666Z,26.60
2023-03-25T04:11:16.493Z,26.90
2023-03-25T04:13:44.623Z,24.00
2023-03-25T04:16:12.853Z,25.20
2023-03-25T04:18:43.677Z,25.80
2023-03-25T04:21:15.551Z,29.90
2023-03-25T04:23:46.218Z,24.30
2023-03-25T04:26:15.437Z,25.80
2023-03-25T04:28:45.747Z,26.60
2023-03-25T04:31:15.779Z,30.40
2023-03-25T04:33:46.738Z,22.70
2023-03-25T04:36:15.587Z,26.10
2023-03-25T04:38:47.402Z,24.50
2023-03-25T04:41:15.993Z,26.70
2023-03-25T04:43:45.473Z,25.50
2023-03-25T04:46:14.611Z,26.70
2023-03-25T04:48:45.715Z,28.50
2023-03-25T04:51:16.514Z,26.90
2023-03-25T04:53:47.525Z,29.10
2023-03-25T04:56:16.886Z,30.50
2023-03-25T04:58:47.862Z,25.30
2023-03-25T05:01:24.288Z,29.20
2023-03-25T05:03:52.411Z,30.40
2023-03-25T05:06:26.300Z,27.20
2023-03-25T05:08:59.879Z,24.40
2023-03-25T05:11:29.205Z,28.20
2023-03-25T05:13:57.774Z,30.50
2023-03-25T05:16:28.900Z,28.80
2023-03-25T05:18:57.008Z,28.10
2023-03-25T05:21:31.829Z,30.70
2023-03-25T05:24:02.022Z,25.50
2023-03-25T05:26:34.627Z,28.40
2023-03-25T05:29:16.323Z,26.10
2023-03-25T05:31:45.787Z,25.60
2023-03-25T05:34:20.800Z,25.90
2023-03-25T05:36:49.669Z,26.70
2023-03-25T05:39:18.098Z,24.90
2023-03-25T05:41:46.216Z,27.20
2023-03-25T05:44:15.125Z,23.40
2023-03-25T05:46:44.305Z,24.00
2023-03-25T05:49:12.816Z,26.70
2023-03-25T05:51:42.074Z,22.30
2023-03-25T05:54:12.001Z,23.60
2023-03-25T05:56:41.492Z,30.20
2023-03-25T05:59:10.545Z,24.90
2023-03-25T06:01:39.523Z,31.30
2023-03-25T06:04:16.914Z,28.50
2023-03-25T06:06:47.616Z,26.30
2023-03-25T06:09:15.572Z,29.50
2023-03-25T06:11:44.896Z,25.80
2023-03-25T06:14:13.163Z,28.10
2023-03-25T06:16:49.079Z,31.30
2023-03-25T06:19:18.631Z,35.10
2023-03-25T06:21:49.540Z,31.00
2023-03-25T06:24:17.783Z,29.70
2023-03-25T06:26:46.125Z,28.90
2023-03-25T06:29:14.144Z,32.00
2023-03-25T06:31:43.110Z,34.40
2023-03-25T06:34:11.693Z,28.40
2023-03-25T06:36:44.528Z,33.20
2023-03-25T06:39:14.288Z,31.40
2023-03-25T06:41:47.977Z,33.70
2023-03-25T06:44:24.455Z,42.20
2023-03-25T06:47:12.147Z,36.90
2023-03-25T06:49:50.791Z,27.90
2023-03-25T06:52:18.925Z,29.20
2023-03-25T06:54:51.152Z,24.20
2023-03-25T06:57:19.720Z,28.50
2023-03-25T06:59:49.894Z,24.40
2023-03-25T07:02:20.363Z,28.80
2023-03-25T07:04:48.371Z,28.80
2023-03-25T07:07:16.673Z,25.60
2023-03-25T07:09:46.631Z,26.50
2023-03-25T07:12:14.613Z,25.50
2023-03-25T07:14:46.589Z,27.00
2023-03-25T07:17:14.631Z,26.00
2023-03-25T07:19:49.756Z,25.00
2023-03-25T07:22:18.486Z,29.10
2023-03-25T07:24:47.439Z,26.40
2023-03-25T07:27:16.332Z,24.00
2023-03-25T07:29:49.282Z,29.00
2023-03-25T07:32:17.423Z,25.30
2023-03-25T07:34:48.945Z,27.90
2023-03-25T07:37:17.850Z,23.00
2023-03-25T07:39:46.332Z,25.00
2023-03-25T07:42:17.220Z,25.60
2023-03-25T07:45:03.517Z,27.70
2023-03-25T07:47:35.610Z,27.40
2023-03-25T07:50:04.576Z,27.30
2023-03-25T07:52:33.310Z,28.10
2023-03-25T07:55:01.913Z,24.80
2023-03-25T07:57:30.701Z,26.30
2023-03-25T08:00:01.128Z,28.70
2023-03-25T08:02:29.609Z,23.80
2023-03-25T08:04:58.205Z,24.40
2023-03-25T08:07:28.701Z,26.10
2023-03-25T08:09:56.786Z,26.10
2023-03-25T08:12:26.646Z,25.10
2023-03-25T08:14:54.694Z,23.10
2023-03-25T08:17:23.140Z,27.40
2023-03-25T08:19:51.165Z,24.60
2023-03-25T08:22:21.234Z,24.30
2023-03-25T08:24:49.893Z,26.70
2023-03-25T08:27:18.122Z,27.10
2023-03-25T08:29:54.431Z,25.20
2023-03-25T08:32:22.558Z,25.30
2023-03-25T08:34:50.646Z,26.90
2023-03-25T08:37:21.678Z,24.40
2023-03-25T08:39:50.700Z,25.70
2023-03-25T08:42:19.118Z,26.80
2023-03-25T08:44:47.410Z,23.90
2023-03-25T08:47:15.725Z,26.90
2023-03-25T08:49:47.455Z,25.00
2023-03-25T08:52:18.874Z,23.80
2023-03-25T08:54:47.351Z,24.30
2023-03-25T08:57:15.860Z,29.00
2023-03-25T08:59:46.813Z,23.80
2023-03-25T09:02:15.595Z,24.50
2023-03-25T09:04:50.427Z,28.40
2023-03-25T09:07:20.025Z,24.00
2023-03-25T09:09:48.106Z,22.00
2023-03-25T09:12:18.765Z,20.80
2023-03-25T09:14:48.702Z,35.60
2023-03-25T09:17:16.748Z,25.60
2023-03-25T09:19:45.490Z,25.40
2023-03-25T09:22:14.119Z,24.40
2023-03-25T09:24:42.881Z,23.70
2023-03-25T09:27:12.963Z,27.30
2023-03-25T09:29:41.513Z,25.10
2023-03-25T09:32:18.698Z,24.80
2023-03-25T09:34:47.113Z,25.60
2023-03-25T09:37:15.347Z,24.90
2023-03-25T09:39:43.475Z,23.60
2023-03-25T09:42:33.285Z,25.80
2023-03-25T09:45:26.507Z,24.20
2023-03-25T09:48:31.451Z,24.10
2023-03-25T09:51:04.778Z,26.80
2023-03-25T09:53:39.553Z,23.80
2023-03-25T09:56:20.582Z,21.80
2023-03-25T09:59:12.212Z,25.10
2023-03-25T10:01:46.674Z,22.90
2023-03-25T10:04:33.956Z,24.00
2023-03-25T10:07:14.110Z,25.30
2023-03-25T10:09:54.402Z,24.70
2023-03-25T10:13:11.436Z,26.10
2023-03-25T10:15:45.920Z,27.00
2023-03-25T10:18:44.594Z,26.20
2023-03-25T10:21:31.188Z,26.70
2023-03-25T10:24:27.922Z,28.90
2023-03-25T10:27:16.147Z,33.20
2023-03-25T10:29:59.584Z,34.40
2023-03-25T10:32:35.360Z,28.90
2023-03-25T10:35:05.420Z,27.40
2023-03-25T10:37:35.766Z,25.40
2023-03-25T10:40:16.863Z,30.20
2023-03-25T10:43:07.991Z,27.50
2023-03-25T10:45:36.254Z,30.60
2023-03-25T10:48:15.165Z,26.70
2023-03-25T10:50:43.401Z,27.60
2023-03-25T10:53:24.598Z,27.60
2023-03-25T10:56:04.010Z,28.90
2023-03-25T10:58:32.447Z,26.80
2023-03-25T11:01:01.683Z,24.40
2023-03-25T11:03:51.717Z,30.20
2023-03-25T11:06:26.729Z,30.60
2023-03-25T11:09:09.138Z,31.60
2023-03-25T11:11:37.508Z,35.10
2023-03-25T11:14:05.535Z,31.80
2023-03-25T11:16:41.205Z,26.10
2023-03-25T11:19:16.374Z,38.90
2023-03-25T11:21:47.879Z,27.80
2023-03-25T11:24:18.368Z,28.70
2023-03-25T11:26:49.182Z,32.50
2023-03-25T11:29:19.396Z,29.50
2023-03-25T11:32:13.706Z,28.60
2023-03-25T11:34:44.432Z,35.80
2023-03-25T11:37:22.701Z,30.50
2023-03-25T11:39:55.300Z,34.00
2023-03-25T11:42:42.928Z,33.80
2023-03-25T11:45:19.985Z,33.00
2023-03-25T11:47:58.578Z,34.30
2023-03-25T11:50:27.981Z,29.70
2023-03-25T11:53:00.838Z,31.80
2023-03-25T11:55:50.877Z,31.90
2023-03-25T11:58:21.652Z,35.00
2023-03-25T12:00:50.880Z,35.30
2023-03-25T12:03:23.081Z,29.00
2023-03-25T12:05:58.268Z,32.20
2023-03-25T12:08:30.031Z,29.40
2023-03-25T12:11:04.729Z,27.60
2023-03-25T12:13:45.156Z,26.50
2023-03-25T12:16:53.570Z,28.10
2023-03-25T12:19:49.725Z,27.90
2023-03-25T12:22:52.106Z,28.70
2023-03-25T12:25:27.300Z,30.90
2023-03-25T12:28:14.419Z,27.40
2023-03-25T12:31:07.609Z,29.00
2023-03-25T12:33:48.442Z,30.30
2023-03-25T12:36:26.164Z,30.50
2023-03-25T12:39:10.951Z,28.20
2023-03-25T12:41:57.472Z,32.20
2023-03-25T12:44:42.251Z,33.20
2023-03-25T12:47:35.988Z,30.20
2023-03-25T12:50:17.946Z,29.50
2023-03-25T12:52:57.945Z,27.80
2023-03-25T12:55:36.014Z,28.70
2023-03-25T12:58:18.008Z,29.40
2023-03-25T13:00:55.314Z,27.60
2023-03-25T13:03:42.337Z,27.20
2023-03-25T13:06:27.294Z,27.90
2023-03-25T13:09:09.928Z,32.40
2023-03-25T13:11:59.820Z,31.60
2023-03-25T13:14:31.284Z,28.70
2023-03-25T13:19:32.969Z,28.00
2023-03-25T13:22:18.234Z,32.10
2023-03-25T13:24:55.898Z,28.10
2023-03-25T13:27:24.820Z,32.10
2023-03-25T13:29:54.364Z,28.80
2023-03-25T13:32:25.784Z,27.90
2023-03-25T13:34:59.659Z,30.20
2023-03-25T13:37:37.147Z,25.70
2023-03-25T13:40:14.762Z,28.40
2023-03-25T13:43:08.124Z,30.60
2023-03-25T13:45:45.112Z,30.60
2023-03-25T13:48:40.189Z,29.10
2023-03-25T13:51:08.608Z,30.70
2023-03-25T13:53:47.103Z,30.00
2023-03-25T13:56:37.482Z,32.20
2023-03-25T13:59:30.103Z,35.80
2023-03-25T14:02:23.123Z,32.30
2023-03-25T14:05:16.575Z,32.30
2023-03-25T14:08:00.157Z,29.90
2023-03-25T14:10:50.480Z,34.00
2023-03-25T14:13:30.236Z,32.20
2023-03-25T14:16:06.242Z,33.60
2023-03-25T14:18:46.223Z,35.30
2023-03-25T14:21:30.735Z,35.20
2023-03-25T14:24:03.656Z,31.70
2023-03-25T14:26:33.289Z,32.10
2023-03-25T14:29:08.322Z,33.30
2023-03-25T14:31:36.584Z,32.60
2023-03-25T14:34:04.821Z,31.60
2023-03-25T14:36:40.934Z,32.70
2023-03-25T14:39:32.216Z,38.60
2023-03-25T14:42:09.484Z,34.20
2023-03-25T14:44:49.990Z,36.70
2023-03-25T14:47:30.306Z,40.50
2023-03-25T14:50:23.542Z,43.30
2023-03-25T14:52:56.324Z,52.70
2023-03-25T14:55:28.091Z,51.70
2023-03-25T14:58:25.105Z,53.30
2023-03-25T15:01:04.382Z,57.50
2023-03-25T15:03:36.015Z,58.70
2023-03-25T15:06:04.256Z,74.10
2023-03-25T15:08:40.491Z,76.20
2023-03-25T15:11:17.156Z,73.40
2023-03-25T15:13:56.180Z,80.20
2023-03-25T15:16:50.044Z,90.70
2023-03-25T15:19:25.075Z,87.10
2023-03-25T15:22:11.066Z,92.30
2023-03-25T15:24:40.721Z,72.30
2023-03-25T15:27:22.083Z,77.30
2023-03-25T15:29:53.719Z,79.20
2023-03-25T15:32:34.364Z,77.40
2023-03-25T15:35:27.166Z,81.30
2023-03-25T15:38:17.083Z,76.40
2023-03-25T15:40:55.506Z,72.40
2023-03-25T15:44:00.840Z,79.40
2023-03-25T15:46:51.341Z,79.60
2023-03-25T15:49:22.434Z,91.20
2023-03-25T15:52:07.513Z,85.30
2023-03-25T15:54:39.552Z,102.30
2023-03-25T15:57:17.161Z,116.90
2023-03-25T16:00:11.984Z,109.50
2023-03-25T16:03:03.653Z,103.90
2023-03-25T16:05:38.971Z,103.80
2023-03-25T16:08:11.629Z,102.80
2023-03-25T16:10:41.667Z,111.10
2023-03-25T16:13:16.757Z,123.60
2023-03-25T16:15:45.654Z,109.10
2023-03-25T16:18:14.556Z,115.60
2023-03-25T16:20:45.604Z,109.10
2023-03-25T16:23:19.495Z,111.40
2023-03-25T16:25:51.268Z,109.70
2023-03-25T16:28:42.708Z,105.70
2023-03-25T16:31:27.709Z,109.80
2023-03-25T16:33:58.867Z,105.10
2023-03-25T16:36:27.486Z,105.60
2023-03-25T16:38:56.621Z,101.40
2023-03-25T16:41:26.122Z,104.80
2023-03-25T16:43:57.660Z,96.50
2023-03-25T16:46:25.787Z,110.30
2023-03-25T16:48:55.847Z,103.40
2023-03-25T16:51:29.341Z,104.90
2023-03-25T16:54:00.847Z,101.40
2023-03-25T16:56:30.733Z,112.40
2023-03-25T16:59:24.428Z,119.40
2023-03-25T17:01:55.051Z,119.30
2023-03-25T17:04:26.306Z,106.80
2023-03-25T17:06:57.860Z,123.90
2023-03-25T17:09:34.491Z,113.80
2023-03-25T17:12:06.685Z,112.20
2023-03-25T17:14:37.269Z,108.30
2023-03-25T17:17:23.042Z,105.90
2023-03-25T17:19:51.924Z,112.40
2023-03-25T17:22:34.047Z,123.20
2023-03-25T17:25:18.576Z,119.10
2023-03-25T17:27:46.910Z,111.30
2023-03-25T17:30:31.006Z,110.20
2023-03-25T17:33:31.778Z,108.50
2023-03-25T17:36:01.417Z,112.30
2023-03-25T17:38:36.519Z,96.90
2023-03-25T17:41:07.408Z,105.60
2023-03-25T17:43:38.820Z,97.70
2023-03-25T17:46:07.187Z,88.00
2023-03-25T17:48:36.615Z,81.40
2023-03-25T17:51:05.378Z,80.60
2023-03-25T17:53:34.985Z,83.50
2023-03-25T17:56:06.089Z,85.50
2023-03-25T17:58:36.145Z,89.10
2023-03-25T18:01:04.934Z,99.60
2023-03-25T18:03:33.868Z,84.50
2023-03-25T18:06:03.826Z,103.10
2023-03-25T18:08:35.078Z,96.60
2023-03-25T18:11:03.407Z,97.90
2023-03-25T18:13:32.296Z,91.80
2023-03-25T18:16:00.367Z,86.00
2023-03-25T18:18:31.310Z,81.60
2023-03-25T18:21:03.958Z,83.60
2023-03-25T18:23:33.825Z,82.90
2023-03-25T18:26:04.566Z,80.00
2023-03-25T18:28:34.622Z,76.40
2023-03-25T18:31:05.302Z,75.80
2023-03-25T18:33:35.333Z,80.50
2023-03-25T18:36:04.012Z,72.80
2023-03-25T18:38:34.740Z,80.60
2023-03-25T18:41:03.600Z,77.60
2023-03-25T18:43:32.174Z,80.20
2023-03-25T18:46:04.501Z,83.90
2023-03-25T18:48:32.831Z,76.30
2023-03-25T18:51:00.999Z,76.90
2023-03-25T18:53:38.414Z,70.20
2023-03-25T18:56:07.635Z,70.50
2023-03-25T18:58:38.391Z,61.20
2023-03-25T19:01:07.907Z,71.50
2023-03-25T19:03:39.813Z,70.80
2023-03-25T19:06:14.557Z,72.10
2023-03-25T19:08:46.312Z,77.20
2023-03-25T19:11:21.152Z,76.60
2023-03-25T19:13:58.610Z,75.70
2023-03-25T19:16:29.687Z,68.30
2023-03-25T19:18:58.010Z,68.60
2023-03-25T19:21:26.631Z,75.90
2023-03-25T19:23:55.404Z,75.70
2023-03-25T19:26:23.468Z,84.40
2023-03-25T19:28:52.610Z,88.80
2023-03-25T19:31:22.825Z,86.30
2023-03-25T19:33:58.604Z,103.80
2023-03-25T19:36:26.746Z,95.40
2023-03-25T19:39:05.551Z,90.50
2023-03-25T19:41:42.177Z,99.40
2023-03-25T19:44:10.802Z,97.20
2023-03-25T19:46:38.959Z,90.10
2023-03-25T19:49:07.262Z,92.50
2023-03-25T19:51:35.674Z,91.70
2023-03-25T19:54:06.077Z,95.20
2023-03-25T19:56:36.402Z,96.90
2023-03-25T19:59:04.596Z,93.50
2023-03-25T20:01:35.067Z,91.80
2023-03-25T20:04:04.403Z,82.10
2023-03-25T20:06:34.675Z,98.20
2023-03-25T20:09:04.421Z,66.90
2023-03-25T20:11:32.763Z,63.40
2023-03-25T20:14:06.556Z,58.90
2023-03-25T20:16:38.908Z,98.40
2023-03-25T20:19:07.168Z,83.20
2023-03-25T20:21:37.185Z,79.30
2023-03-25T20:24:05.875Z,74.50
2023-03-25T20:26:33.818Z,80.70
2023-03-25T20:29:03.164Z,74.90
2023-03-25T20:31:33.359Z,73.70
2023-03-25T20:34:02.056Z,85.00
2023-03-25T20:36:30.977Z,89.60
2023-03-25T20:39:00.785Z,68.40
2023-03-25T20:41:29.373Z,80.40
2023-03-25T20:43:57.392Z,64.80
2023-03-25T20:46:28.679Z,74.70
2023-03-25T20:48:58.022Z,60.80
2023-03-25T20:51:26.152Z,59.40
2023-03-25T20:53:54.289Z,47.20
2023-03-25T20:56:22.696Z,46.30
2023-03-25T20:58:51.174Z,49.90
2023-03-25T21:01:21.462Z,51.80
2023-03-25T21:03:52.129Z,56.30
2023-03-25T21:06:25.658Z,53.30
2023-03-25T21:08:59.564Z,56.60
2023-03-25T21:11:31.589Z,66.60
2023-03-25T21:14:00.638Z,56.70
2023-03-25T21:16:29.257Z,55.00
2023-03-25T21:19:01.904Z,59.10
2023-03-25T21:21:34.794Z,55.30
2023-03-25T21:24:04.217Z,56.10
2023-03-25T21:26:36.514Z,57.40
2023-03-25T21:29:05.020Z,58.70
2023-03-25T21:31:33.018Z,53.30
2023-03-25T21:34:02.854Z,52.00
2023-03-25T21:36:32.408Z,49.20
2023-03-25T21:39:04.517Z,47.60
2023-03-25T21:41:36.232Z,43.50
2023-03-25T21:44:05.442Z,36.50
2023-03-25T21:46:34.213Z,37.80
2023-03-25T21:49:04.170Z,39.10
2023-03-25T21:51:36.073Z,47.50
2023-03-25T21:54:04.476Z,45.60
2023-03-25T21:56:35.077Z,43.90
2023-03-25T21:59:05.749Z,43.80
2023-03-25T22:01:41.886Z,42.50
2023-03-25T22:04:10.882Z,45.80
2023-03-25T22:06:39.108Z,47.10
2023-03-25T22:09:09.282Z,51.40
2023-03-25T22:11:37.872Z,47.50
2023-03-25T22:14:07.039Z,46.70
2023-03-25T22:16:36.022Z,50.80
2023-03-25T22:19:04.784Z,49.20
2023-03-25T22:21:34.497Z,48.40
2023-03-25T22:24:05.447Z,47.70
2023-03-25T22:26:34.337Z,47.70
2023-03-25T22:29:06.098Z,47.70
2023-03-25T22:31:39.540Z,49.70
2023-03-25T22:34:12.489Z,43.70
2023-03-25T22:36:49.819Z,49.90
2023-03-25T22:39:19.780Z,43.00
2023-03-25T22:41:50.435Z,45.00
2023-03-25T22:44:19.014Z,41.10
2023-03-25T22:46:48.881Z,42.90
2023-03-25T22:49:17.317Z,42.20
2023-03-25T22:51:45.673Z,37.00
2023-03-25T22:54:13.879Z,40.40
2023-03-25T22:56:45.563Z,35.90
2023-03-25T22:59:14.181Z,33.60
2023-03-25T23:01:44.625Z,35.50
2023-03-25T23:04:12.917Z,29.60
2023-03-25T23:06:42.040Z,33.00
2023-03-25T23:09:10.647Z,30.60
2023-03-25T23:11:38.794Z,26.90
2023-03-25T23:14:11.001Z,31.80
2023-03-25T23:16:42.048Z,26.80
2023-03-25T23:19:10.449Z,25.80
2023-03-25T23:21:40.678Z,25.00
2023-03-25T23:24:08.813Z,23.40
2023-03-25T23:26:39.441Z,19.20
2023-03-25T23:29:10.614Z,25.00
2023-03-25T23:31:41.658Z,20.70
2023-03-25T23:34:14.369Z,25.10
2023-03-25T23:36:43.732Z,26.80
2023-03-25T23:39:14.270Z,25.30
2023-03-25T23:41:46.017Z,25.80
2023-03-25T23:44:16.083Z,25.70
2023-03-25T23:46:46.592Z,28.00
2023-03-25T23:49:18.132Z,29.50
2023-03-25T23:51:47.224Z,34.80
2023-03-25T23:54:15.913Z,36.20
2023-03-25T23:56:44.048Z,40.30
2023-03-25T23:59:13.892Z,35.60
